sensor_id;sensor_type;location;lat;lon;timestamp;pressure;altitude;pressure_sealevel;temperature;humidity
24422;BME280;12600;53.326;-6.298;2024-02-21T00:01:15;100767.28;;;11.06;83.25
24422;BME280;12600;53.326;-6.298;2024-02-21T00:04:07;100754.22;;;11.03;83.07
24422;BME280;12600;53.326;-6.298;2024-02-21T00:06:56;100718.19;;;11.01;83.18
24422;BME280;12600;53.326;-6.298;2024-02-21T00:09:46;100697.63;;;11.04;82.42
24422;BME280;12600;53.326;-6.298;2024-02-21T00:12:35;100684.00;;;11.12;82.37
24422;BME280;12600;53.326;-6.298;2024-02-21T00:15:24;100661.00;;;11.13;81.78
24422;BME280;12600;53.326;-6.298;2024-02-21T00:18:15;100662.00;;;11.17;80.31
24422;BME280;12600;53.326;-6.298;2024-02-21T00:21:06;100654.50;;;11.23;79.37
24422;BME280;12600;53.326;-6.298;2024-02-21T00:23:56;100641.44;;;11.20;78.86
24422;BME280;12600;53.326;-6.298;2024-02-21T00:26:45;100634.22;;;11.24;79.28
24422;BME280;12600;53.326;-6.298;2024-02-21T00:29:34;100646.81;;;11.34;79.80
24422;BME280;12600;53.326;-6.298;2024-02-21T00:32:24;100628.47;;;11.34;79.81
24422;BME280;12600;53.326;-6.298;2024-02-21T00:35:14;100636.81;;;11.29;80.39
24422;BME280;12600;53.326;-6.298;2024-02-21T00:38:05;100631.66;;;11.28;80.36
24422;BME280;12600;53.326;-6.298;2024-02-21T00:40:55;100623.81;;;11.35;80.25
24422;BME280;12600;53.326;-6.298;2024-02-21T00:43:44;100612.53;;;11.36;80.52
24422;BME280;12600;53.326;-6.298;2024-02-21T00:46:36;100605.97;;;11.46;80.57
24422;BME280;12600;53.326;-6.298;2024-02-21T00:49:27;100594.44;;;11.49;80.78
24422;BME280;12600;53.326;-6.298;2024-02-21T00:52:16;100579.16;;;11.57;80.89
24422;BME280;12600;53.326;-6.298;2024-02-21T00:55:09;100568.84;;;11.54;81.16
24422;BME280;12600;53.326;-6.298;2024-02-21T00:57:58;100572.41;;;11.63;81.31
24422;BME280;12600;53.326;-6.298;2024-02-21T01:00:48;100565.28;;;11.53;81.51
24422;BME280;12600;53.326;-6.298;2024-02-21T01:03:39;100568.25;;;11.65;82.04
24422;BME280;12600;53.326;-6.298;2024-02-21T01:06:29;100549.88;;;11.66;82.08
24422;BME280;12600;53.326;-6.298;2024-02-21T01:09:19;100544.56;;;11.69;82.39
24422;BME280;12600;53.326;-6.298;2024-02-21T01:12:09;100537.97;;;11.70;82.95
24422;BME280;12600;53.326;-6.298;2024-02-21T01:14:59;100526.19;;;11.53;83.86
24422;BME280;12600;53.326;-6.298;2024-02-21T01:17:48;100511.09;;;11.55;84.57
24422;BME280;12600;53.326;-6.298;2024-02-21T01:20:42;100498.22;;;11.64;84.48
24422;BME280;12600;53.326;-6.298;2024-02-21T01:23:32;100494.69;;;11.64;85.05
24422;BME280;12600;53.326;-6.298;2024-02-21T01:26:21;100489.69;;;11.66;85.39
24422;BME280;12600;53.326;-6.298;2024-02-21T01:29:12;100490.31;;;11.63;85.44
24422;BME280;12600;53.326;-6.298;2024-02-21T01:32:01;100461.66;;;11.60;85.91
24422;BME280;12600;53.326;-6.298;2024-02-21T01:34:51;100443.94;;;11.49;86.64
24422;BME280;12600;53.326;-6.298;2024-02-21T01:37:40;100445.88;;;11.40;87.63
24422;BME280;12600;53.326;-6.298;2024-02-21T01:40:30;100420.75;;;11.38;88.14
24422;BME280;12600;53.326;-6.298;2024-02-21T01:43:20;100418.53;;;11.40;87.86
24422;BME280;12600;53.326;-6.298;2024-02-21T01:46:11;100405.31;;;11.42;88.35
24422;BME280;12600;53.326;-6.298;2024-02-21T01:49:01;100393.25;;;11.43;88.08
24422;BME280;12600;53.326;-6.298;2024-02-21T01:51:52;100368.16;;;11.41;89.10
24422;BME280;12600;53.326;-6.298;2024-02-21T01:54:43;100363.31;;;11.38;89.36
24422;BME280;12600;53.326;-6.298;2024-02-21T01:57:32;100351.56;;;11.37;89.45
24422;BME280;12600;53.326;-6.298;2024-02-21T02:00:22;100309.09;;;11.23;90.42
24422;BME280;12600;53.326;-6.298;2024-02-21T02:03:14;100306.06;;;11.24;91.30
24422;BME280;12600;53.326;-6.298;2024-02-21T02:06:06;100277.41;;;11.21;92.07
24422;BME280;12600;53.326;-6.298;2024-02-21T02:08:55;100270.66;;;11.19;92.71
24422;BME280;12600;53.326;-6.298;2024-02-21T02:11:45;100252.16;;;11.25;92.46
24422;BME280;12600;53.326;-6.298;2024-02-21T02:14:35;100240.25;;;11.20;93.33
24422;BME280;12600;53.326;-6.298;2024-02-21T02:17:25;100222.56;;;11.18;93.95
24422;BME280;12600;53.326;-6.298;2024-02-21T02:20:16;100233.50;;;11.27;93.38
24422;BME280;12600;53.326;-6.298;2024-02-21T02:26:04;100199.22;;;11.29;93.59
24422;BME280;12600;53.326;-6.298;2024-02-21T02:28:55;100204.53;;;11.34;93.24
24422;BME280;12600;53.326;-6.298;2024-02-21T02:31:44;100206.13;;;11.35;93.66
24422;BME280;12600;53.326;-6.298;2024-02-21T02:34:34;100186.03;;;11.31;93.64
24422;BME280;12600;53.326;-6.298;2024-02-21T02:37:23;100172.53;;;11.26;94.60
24422;BME280;12600;53.326;-6.298;2024-02-21T02:40:13;100159.19;;;11.25;94.85
24422;BME280;12600;53.326;-6.298;2024-02-21T02:43:05;100132.97;;;11.24;95.50
24422;BME280;12600;53.326;-6.298;2024-02-21T02:45:54;100114.28;;;11.26;96.41
24422;BME280;12600;53.326;-6.298;2024-02-21T02:48:44;100110.69;;;11.42;96.97
24422;BME280;12600;53.326;-6.298;2024-02-21T02:51:34;100095.22;;;11.55;95.95
24422;BME280;12600;53.326;-6.298;2024-02-21T02:54:23;100081.28;;;11.69;95.71
24422;BME280;12600;53.326;-6.298;2024-02-21T02:57:12;100071.59;;;11.80;95.05
24422;BME280;12600;53.326;-6.298;2024-02-21T03:00:05;100059.63;;;11.85;94.85
24422;BME280;12600;53.326;-6.298;2024-02-21T03:02:56;100024.53;;;11.87;94.60
24422;BME280;12600;53.326;-6.298;2024-02-21T03:05:46;100025.94;;;11.93;94.76
24422;BME280;12600;53.326;-6.298;2024-02-21T03:08:35;100005.34;;;11.87;94.52
24422;BME280;12600;53.326;-6.298;2024-02-21T03:11:25;99999.22;;;11.90;94.60
24422;BME280;12600;53.326;-6.298;2024-02-21T03:14:18;100001.50;;;11.88;95.13
24422;BME280;12600;53.326;-6.298;2024-02-21T03:17:09;99984.47;;;11.82;96.05
24422;BME280;12600;53.326;-6.298;2024-02-21T03:19:58;99961.44;;;11.83;96.66
24422;BME280;12600;53.326;-6.298;2024-02-21T03:22:48;99953.22;;;11.83;97.19
24422;BME280;12600;53.326;-6.298;2024-02-21T03:25:37;99944.34;;;11.86;97.32
24422;BME280;12600;53.326;-6.298;2024-02-21T03:28:27;99921.97;;;11.84;97.98
24422;BME280;12600;53.326;-6.298;2024-02-21T03:31:16;99911.09;;;11.75;99.63
24422;BME280;12600;53.326;-6.298;2024-02-21T03:34:07;99880.28;;;11.78;100.00
24422;BME280;12600;53.326;-6.298;2024-02-21T03:36:57;99888.06;;;11.76;100.00
24422;BME280;12600;53.326;-6.298;2024-02-21T03:39:47;99881.66;;;11.72;100.00
24422;BME280;12600;53.326;-6.298;2024-02-21T03:42:37;99865.31;;;11.64;100.00
24422;BME280;12600;53.326;-6.298;2024-02-21T03:45:29;99865.06;;;11.57;100.00
24422;BME280;12600;53.326;-6.298;2024-02-21T03:48:19;99847.97;;;11.60;100.00
24422;BME280;12600;53.326;-6.298;2024-02-21T03:51:10;99821.63;;;11.55;100.00
24422;BME280;12600;53.326;-6.298;2024-02-21T03:53:59;99801.88;;;11.49;100.00
24422;BME280;12600;53.326;-6.298;2024-02-21T03:56:48;99791.53;;;11.55;100.00
24422;BME280;12600;53.326;-6.298;2024-02-21T03:59:38;99777.50;;;11.57;100.00
24422;BME280;12600;53.326;-6.298;2024-02-21T04:02:31;99764.97;;;11.56;100.00
24422;BME280;12600;53.326;-6.298;2024-02-21T04:05:21;99735.63;;;11.44;100.00
24422;BME280;12600;53.326;-6.298;2024-02-21T04:08:12;99735.78;;;11.47;100.00
24422;BME280;12600;53.326;-6.298;2024-02-21T04:11:02;99721.97;;;11.44;100.00
24422;BME280;12600;53.326;-6.298;2024-02-21T04:13:51;99708.16;;;11.40;100.00
24422;BME280;12600;53.326;-6.298;2024-02-21T04:16:41;99695.75;;;11.43;100.00
24422;BME280;12600;53.326;-6.298;2024-02-21T04:19:30;99680.28;;;11.47;100.00
24422;BME280;12600;53.326;-6.298;2024-02-21T04:22:20;99670.91;;;11.48;100.00
24422;BME280;12600;53.326;-6.298;2024-02-21T04:25:11;99664.31;;;11.49;100.00
24422;BME280;12600;53.326;-6.298;2024-02-21T04:28:02;99648.34;;;11.51;100.00
24422;BME280;12600;53.326;-6.298;2024-02-21T04:30:52;99632.03;;;11.55;100.00
24422;BME280;12600;53.326;-6.298;2024-02-21T04:33:41;99613.47;;;11.60;100.00
24422;BME280;12600;53.326;-6.298;2024-02-21T04:36:31;99615.19;;;11.65;100.00
24422;BME280;12600;53.326;-6.298;2024-02-21T04:39:20;99604.38;;;11.68;100.00
24422;BME280;12600;53.326;-6.298;2024-02-21T04:42:11;99595.50;;;11.71;100.00
24422;BME280;12600;53.326;-6.298;2024-02-21T04:45:01;99578.03;;;11.76;100.00
24422;BME280;12600;53.326;-6.298;2024-02-21T04:47:50;99566.09;;;11.81;100.00
24422;BME280;12600;53.326;-6.298;2024-02-21T04:50:40;99548.97;;;11.84;100.00
24422;BME280;12600;53.326;-6.298;2024-02-21T04:53:29;99534.94;;;11.85;100.00
24422;BME280;12600;53.326;-6.298;2024-02-21T04:56:19;99531.63;;;11.92;100.00
24422;BME280;12600;53.326;-6.298;2024-02-21T04:59:09;99510.44;;;11.89;100.00
24422;BME280;12600;53.326;-6.298;2024-02-21T05:01:59;99502.88;;;11.98;100.00
24422;BME280;12600;53.326;-6.298;2024-02-21T05:04:48;99478.69;;;12.00;100.00
24422;BME280;12600;53.326;-6.298;2024-02-21T05:07:38;99460.44;;;12.04;100.00
24422;BME280;12600;53.326;-6.298;2024-02-21T05:10:27;99445.44;;;12.14;100.00
24422;BME280;12600;53.326;-6.298;2024-02-21T05:13:17;99452.78;;;12.25;100.00
24422;BME280;12600;53.326;-6.298;2024-02-21T05:16:08;99433.56;;;12.38;100.00
24422;BME280;12600;53.326;-6.298;2024-02-21T05:18:57;99428.81;;;12.50;100.00
24422;BME280;12600;53.326;-6.298;2024-02-21T05:21:47;99426.38;;;12.61;100.00
24422;BME280;12600;53.326;-6.298;2024-02-21T05:24:36;99403.84;;;12.68;100.00
24422;BME280;12600;53.326;-6.298;2024-02-21T05:27:28;99402.50;;;12.77;100.00
24422;BME280;12600;53.326;-6.298;2024-02-21T05:30:17;99398.78;;;12.85;100.00
24422;BME280;12600;53.326;-6.298;2024-02-21T05:33:08;99393.72;;;12.87;100.00
24422;BME280;12600;53.326;-6.298;2024-02-21T05:35:58;99370.81;;;12.96;100.00
24422;BME280;12600;53.326;-6.298;2024-02-21T05:38:47;99365.88;;;13.01;100.00
24422;BME280;12600;53.326;-6.298;2024-02-21T05:41:37;99356.13;;;13.04;100.00
24422;BME280;12600;53.326;-6.298;2024-02-21T05:44:26;99347.16;;;13.07;100.00
24422;BME280;12600;53.326;-6.298;2024-02-21T05:47:16;99336.81;;;13.16;100.00
24422;BME280;12600;53.326;-6.298;2024-02-21T05:50:10;99309.41;;;13.16;100.00
24422;BME280;12600;53.326;-6.298;2024-02-21T05:53:00;99304.91;;;13.24;100.00
24422;BME280;12600;53.326;-6.298;2024-02-21T05:55:49;99289.66;;;13.26;100.00
24422;BME280;12600;53.326;-6.298;2024-02-21T05:58:39;99274.25;;;13.22;100.00
24422;BME280;12600;53.326;-6.298;2024-02-21T06:01:29;99271.44;;;13.37;100.00
24422;BME280;12600;53.326;-6.298;2024-02-21T06:04:18;99262.84;;;13.39;100.00
24422;BME280;12600;53.326;-6.298;2024-02-21T06:07:09;99242.81;;;13.35;100.00
24422;BME280;12600;53.326;-6.298;2024-02-21T06:09:59;99221.66;;;13.35;100.00
24422;BME280;12600;53.326;-6.298;2024-02-21T06:12:49;99203.75;;;13.41;100.00
24422;BME280;12600;53.326;-6.298;2024-02-21T06:15:38;99210.94;;;13.50;100.00
24422;BME280;12600;53.326;-6.298;2024-02-21T06:18:28;99192.91;;;13.49;100.00
24422;BME280;12600;53.326;-6.298;2024-02-21T06:21:17;99182.78;;;13.53;100.00
24422;BME280;12600;53.326;-6.298;2024-02-21T06:24:08;99160.41;;;13.51;100.00
24422;BME280;12600;53.326;-6.298;2024-02-21T06:26:57;99160.53;;;13.58;100.00
24422;BME280;12600;53.326;-6.298;2024-02-21T06:29:47;99133.81;;;13.55;100.00
24422;BME280;12600;53.326;-6.298;2024-02-21T06:32:37;99130.03;;;13.63;100.00
24422;BME280;12600;53.326;-6.298;2024-02-21T06:35:27;99107.34;;;13.66;100.00
24422;BME280;12600;53.326;-6.298;2024-02-21T06:38:16;99101.53;;;13.71;100.00
24422;BME280;12600;53.326;-6.298;2024-02-21T06:41:15;99097.97;;;13.67;100.00
24422;BME280;12600;53.326;-6.298;2024-02-21T06:44:06;99101.13;;;13.69;100.00
24422;BME280;12600;53.326;-6.298;2024-02-21T06:46:56;99090.25;;;13.76;100.00
24422;BME280;12600;53.326;-6.298;2024-02-21T06:49:49;99084.53;;;13.62;100.00
24422;BME280;12600;53.326;-6.298;2024-02-21T06:52:39;99067.53;;;13.79;100.00
24422;BME280;12600;53.326;-6.298;2024-02-21T06:55:29;99051.91;;;13.80;100.00
24422;BME280;12600;53.326;-6.298;2024-02-21T06:58:20;99049.94;;;13.80;100.00
24422;BME280;12600;53.326;-6.298;2024-02-21T07:01:10;99034.28;;;13.84;100.00
24422;BME280;12600;53.326;-6.298;2024-02-21T07:03:59;99035.84;;;13.82;100.00
24422;BME280;12600;53.326;-6.298;2024-02-21T07:06:49;99021.84;;;13.90;100.00
24422;BME280;12600;53.326;-6.298;2024-02-21T07:09:39;99011.28;;;13.92;100.00
24422;BME280;12600;53.326;-6.298;2024-02-21T07:12:28;98990.88;;;13.93;100.00
24422;BME280;12600;53.326;-6.298;2024-02-21T07:15:19;98968.88;;;13.90;100.00
24422;BME280;12600;53.326;-6.298;2024-02-21T07:18:09;98994.88;;;13.96;100.00
24422;BME280;12600;53.326;-6.298;2024-02-21T07:20:58;98969.41;;;13.99;100.00
24422;BME280;12600;53.326;-6.298;2024-02-21T07:23:48;98952.13;;;13.98;100.00
24422;BME280;12600;53.326;-6.298;2024-02-21T07:26:40;98957.94;;;13.93;100.00
24422;BME280;12600;53.326;-6.298;2024-02-21T07:29:30;98931.25;;;13.90;100.00
24422;BME280;12600;53.326;-6.298;2024-02-21T07:32:20;98955.69;;;14.03;100.00
24422;BME280;12600;53.326;-6.298;2024-02-21T07:35:10;98922.66;;;13.95;100.00
24422;BME280;12600;53.326;-6.298;2024-02-21T07:38:00;98938.00;;;13.96;100.00
24422;BME280;12600;53.326;-6.298;2024-02-21T07:40:51;98913.00;;;14.05;100.00
24422;BME280;12600;53.326;-6.298;2024-02-21T07:43:40;98906.19;;;13.95;100.00
24422;BME280;12600;53.326;-6.298;2024-02-21T07:46:30;98897.63;;;14.00;100.00
24422;BME280;12600;53.326;-6.298;2024-02-21T07:49:21;98878.81;;;14.03;100.00
24422;BME280;12600;53.326;-6.298;2024-02-21T07:52:11;98877.13;;;13.91;100.00
24422;BME280;12600;53.326;-6.298;2024-02-21T07:55:00;98851.63;;;13.90;100.00
24422;BME280;12600;53.326;-6.298;2024-02-21T07:57:50;98867.25;;;13.86;100.00
24422;BME280;12600;53.326;-6.298;2024-02-21T08:00:40;98867.25;;;13.86;100.00
24422;BME280;12600;53.326;-6.298;2024-02-21T08:03:29;98862.44;;;13.76;100.00
24422;BME280;12600;53.326;-6.298;2024-02-21T08:06:20;98862.91;;;13.82;100.00
24422;BME280;12600;53.326;-6.298;2024-02-21T08:09:10;98842.91;;;13.81;100.00
24422;BME280;12600;53.326;-6.298;2024-02-21T08:11:59;98834.75;;;13.88;100.00
24422;BME280;12600;53.326;-6.298;2024-02-21T08:14:49;98847.38;;;13.96;100.00
24422;BME280;12600;53.326;-6.298;2024-02-21T08:17:38;98830.47;;;13.94;100.00
24422;BME280;12600;53.326;-6.298;2024-02-21T08:20:28;98809.66;;;13.90;100.00
24422;BME280;12600;53.326;-6.298;2024-02-21T08:23:19;98805.44;;;13.99;100.00
24422;BME280;12600;53.326;-6.298;2024-02-21T08:26:10;98794.88;;;14.02;100.00
24422;BME280;12600;53.326;-6.298;2024-02-21T08:29:01;98801.06;;;13.95;100.00
24422;BME280;12600;53.326;-6.298;2024-02-21T08:31:50;98800.34;;;14.02;100.00
24422;BME280;12600;53.326;-6.298;2024-02-21T08:34:41;98797.28;;;14.10;100.00
24422;BME280;12600;53.326;-6.298;2024-02-21T08:37:31;98782.31;;;14.00;100.00
24422;BME280;12600;53.326;-6.298;2024-02-21T08:40:22;98750.13;;;14.01;100.00
24422;BME280;12600;53.326;-6.298;2024-02-21T08:43:12;98776.47;;;14.06;100.00
24422;BME280;12600;53.326;-6.298;2024-02-21T08:46:01;98761.97;;;14.05;100.00
24422;BME280;12600;53.326;-6.298;2024-02-21T08:48:51;98763.63;;;14.17;100.00
24422;BME280;12600;53.326;-6.298;2024-02-21T08:51:41;98743.22;;;14.18;100.00
24422;BME280;12600;53.326;-6.298;2024-02-21T08:54:31;98746.41;;;14.20;100.00
24422;BME280;12600;53.326;-6.298;2024-02-21T08:57:22;98757.88;;;14.33;100.00
24422;BME280;12600;53.326;-6.298;2024-02-21T09:00:13;98743.78;;;14.38;100.00
24422;BME280;12600;53.326;-6.298;2024-02-21T09:03:03;98743.72;;;14.31;100.00
24422;BME280;12600;53.326;-6.298;2024-02-21T09:05:53;98745.25;;;14.24;100.00
24422;BME280;12600;53.326;-6.298;2024-02-21T09:08:43;98735.50;;;14.31;100.00
24422;BME280;12600;53.326;-6.298;2024-02-21T09:11:32;98731.28;;;14.44;100.00
24422;BME280;12600;53.326;-6.298;2024-02-21T09:14:23;98747.09;;;14.58;100.00
24422;BME280;12600;53.326;-6.298;2024-02-21T09:17:13;98753.81;;;14.64;100.00
24422;BME280;12600;53.326;-6.298;2024-02-21T09:20:07;98750.63;;;14.54;100.00
24422;BME280;12600;53.326;-6.298;2024-02-21T09:23:00;98747.03;;;14.50;100.00
24422;BME280;12600;53.326;-6.298;2024-02-21T09:25:49;98744.72;;;14.56;100.00
24422;BME280;12600;53.326;-6.298;2024-02-21T09:28:39;98765.50;;;14.50;100.00
24422;BME280;12600;53.326;-6.298;2024-02-21T09:31:30;98761.22;;;14.56;100.00
24422;BME280;12600;53.326;-6.298;2024-02-21T09:34:20;98749.91;;;14.65;100.00
24422;BME280;12600;53.326;-6.298;2024-02-21T09:37:10;98751.13;;;14.71;100.00
24422;BME280;12600;53.326;-6.298;2024-02-21T09:39:59;98753.47;;;14.69;100.00
24422;BME280;12600;53.326;-6.298;2024-02-21T09:42:49;98745.72;;;14.89;100.00
24422;BME280;12600;53.326;-6.298;2024-02-21T09:45:46;98765.31;;;14.83;100.00
24422;BME280;12600;53.326;-6.298;2024-02-21T09:48:58;98744.22;;;15.02;100.00
24422;BME280;12600;53.326;-6.298;2024-02-21T09:51:54;98745.41;;;15.01;100.00
24422;BME280;12600;53.326;-6.298;2024-02-21T09:54:44;98748.19;;;15.15;100.00
24422;BME280;12600;53.326;-6.298;2024-02-21T09:57:34;98732.09;;;15.14;100.00
24422;BME280;12600;53.326;-6.298;2024-02-21T10:00:24;98736.91;;;15.34;100.00
24422;BME280;12600;53.326;-6.298;2024-02-21T10:03:13;98733.66;;;15.15;100.00
24422;BME280;12600;53.326;-6.298;2024-02-21T10:06:05;98749.03;;;15.23;100.00
24422;BME280;12600;53.326;-6.298;2024-02-21T10:08:54;98747.84;;;15.20;100.00
24422;BME280;12600;53.326;-6.298;2024-02-21T10:11:44;98769.44;;;15.18;100.00
24422;BME280;12600;53.326;-6.298;2024-02-21T10:14:33;98769.84;;;15.24;100.00
24422;BME280;12600;53.326;-6.298;2024-02-21T10:17:23;98749.81;;;15.16;100.00
24422;BME280;12600;53.326;-6.298;2024-02-21T10:20:13;98765.84;;;15.03;100.00
24422;BME280;12600;53.326;-6.298;2024-02-21T10:23:05;98756.50;;;15.19;100.00
24422;BME280;12600;53.326;-6.298;2024-02-21T10:26:05;98761.16;;;15.15;100.00
24422;BME280;12600;53.326;-6.298;2024-02-21T10:28:55;98742.34;;;15.24;100.00
24422;BME280;12600;53.326;-6.298;2024-02-21T10:31:45;98769.91;;;15.38;100.00
24422;BME280;12600;53.326;-6.298;2024-02-21T10:34:35;98780.19;;;15.41;100.00
24422;BME280;12600;53.326;-6.298;2024-02-21T10:37:25;98790.00;;;15.42;100.00
24422;BME280;12600;53.326;-6.298;2024-02-21T10:40:16;98791.56;;;15.43;100.00
24422;BME280;12600;53.326;-6.298;2024-02-21T10:43:10;98801.00;;;15.42;100.00
24422;BME280;12600;53.326;-6.298;2024-02-21T10:46:03;98813.19;;;15.45;100.00
24422;BME280;12600;53.326;-6.298;2024-02-21T10:49:13;98829.72;;;15.45;100.00
24422;BME280;12600;53.326;-6.298;2024-02-21T10:52:12;98819.91;;;15.51;100.00
24422;BME280;12600;53.326;-6.298;2024-02-21T10:55:07;98828.13;;;15.47;100.00
24422;BME280;12600;53.326;-6.298;2024-02-21T10:58:00;98847.81;;;15.46;100.00
24422;BME280;12600;53.326;-6.298;2024-02-21T11:00:50;98850.16;;;15.47;100.00
24422;BME280;12600;53.326;-6.298;2024-02-21T11:03:41;98859.97;;;15.41;100.00
24422;BME280;12600;53.326;-6.298;2024-02-21T11:06:31;98858.84;;;15.53;100.00
24422;BME280;12600;53.326;-6.298;2024-02-21T11:09:30;98874.53;;;15.45;100.00
24422;BME280;12600;53.326;-6.298;2024-02-21T11:12:23;98859.53;;;15.32;100.00
24422;BME280;12600;53.326;-6.298;2024-02-21T11:15:17;98876.09;;;15.46;100.00
24422;BME280;12600;53.326;-6.298;2024-02-21T11:18:06;98865.66;;;15.77;99.75
24422;BME280;12600;53.326;-6.298;2024-02-21T11:20:56;98875.59;;;15.99;96.28
24422;BME280;12600;53.326;-6.298;2024-02-21T11:23:55;98900.00;;;16.11;93.86
24422;BME280;12600;53.326;-6.298;2024-02-21T11:26:49;98920.41;;;15.96;92.44
24422;BME280;12600;53.326;-6.298;2024-02-21T11:29:43;98910.59;;;15.95;90.52
24422;BME280;12600;53.326;-6.298;2024-02-21T11:32:34;98912.06;;;15.71;90.02
24422;BME280;12600;53.326;-6.298;2024-02-21T11:35:25;98911.63;;;15.62;91.25
24422;BME280;12600;53.326;-6.298;2024-02-21T11:38:22;98904.84;;;15.56;91.39
24422;BME280;12600;53.326;-6.298;2024-02-21T11:41:13;98906.81;;;15.52;91.61
24422;BME280;12600;53.326;-6.298;2024-02-21T11:44:04;98904.81;;;15.42;92.95
24422;BME280;12600;53.326;-6.298;2024-02-21T11:46:53;98905.84;;;15.23;93.19
24422;BME280;12600;53.326;-6.298;2024-02-21T11:49:46;98909.13;;;15.46;92.60
24422;BME280;12600;53.326;-6.298;2024-02-21T11:52:38;98918.41;;;15.24;94.47
24422;BME280;12600;53.326;-6.298;2024-02-21T11:55:27;98910.94;;;15.17;93.63
24422;BME280;12600;53.326;-6.298;2024-02-21T11:58:17;98923.56;;;15.29;94.17
24422;BME280;12600;53.326;-6.298;2024-02-21T12:01:07;98924.75;;;15.31;94.03
24422;BME280;12600;53.326;-6.298;2024-02-21T12:03:56;98920.06;;;15.32;91.38
24422;BME280;12600;53.326;-6.298;2024-02-21T12:06:47;98917.56;;;15.09;90.19
24422;BME280;12600;53.326;-6.298;2024-02-21T12:09:36;98922.66;;;15.10;88.65
24422;BME280;12600;53.326;-6.298;2024-02-21T12:12:27;98937.94;;;15.04;88.76
24422;BME280;12600;53.326;-6.298;2024-02-21T12:15:18;98924.69;;;15.21;88.87
24422;BME280;12600;53.326;-6.298;2024-02-21T12:18:09;98931.09;;;15.32;88.85
24422;BME280;12600;53.326;-6.298;2024-02-21T12:20:59;98927.44;;;15.17;88.08
24422;BME280;12600;53.326;-6.298;2024-02-21T12:23:50;98934.00;;;15.02;87.65
24422;BME280;12600;53.326;-6.298;2024-02-21T12:26:40;98938.97;;;14.89;85.83
24422;BME280;12600;53.326;-6.298;2024-02-21T12:29:29;98954.16;;;15.17;85.57
24422;BME280;12600;53.326;-6.298;2024-02-21T12:32:19;98948.47;;;14.95;84.24
24422;BME280;12600;53.326;-6.298;2024-02-21T12:35:09;98949.28;;;14.99;83.06
24422;BME280;12600;53.326;-6.298;2024-02-21T12:37:59;98943.41;;;15.01;82.97
24422;BME280;12600;53.326;-6.298;2024-02-21T12:40:51;98903.88;;;14.72;82.43
24422;BME280;12600;53.326;-6.298;2024-02-21T12:43:41;98955.38;;;14.78;82.23
24422;BME280;12600;53.326;-6.298;2024-02-21T12:46:30;98945.59;;;14.81;82.15
24422;BME280;12600;53.326;-6.298;2024-02-21T12:49:20;98952.31;;;14.87;82.10
24422;BME280;12600;53.326;-6.298;2024-02-21T12:52:10;98964.03;;;14.77;82.22
24422;BME280;12600;53.326;-6.298;2024-02-21T12:55:01;98962.78;;;14.71;81.53
24422;BME280;12600;53.326;-6.298;2024-02-21T12:57:53;98952.25;;;14.80;81.47
24422;BME280;12600;53.326;-6.298;2024-02-21T13:00:42;98957.50;;;14.92;81.24
24422;BME280;12600;53.326;-6.298;2024-02-21T13:03:32;98965.78;;;14.99;80.98
24422;BME280;12600;53.326;-6.298;2024-02-21T13:06:22;98954.41;;;15.01;80.42
24422;BME280;12600;53.326;-6.298;2024-02-21T13:09:11;98963.25;;;15.24;80.19
24422;BME280;12600;53.326;-6.298;2024-02-21T13:12:02;98975.19;;;15.43;79.59
24422;BME280;12600;53.326;-6.298;2024-02-21T13:14:52;98972.59;;;15.64;78.44
24422;BME280;12600;53.326;-6.298;2024-02-21T13:17:42;98975.25;;;15.53;77.61
24422;BME280;12600;53.326;-6.298;2024-02-21T13:20:32;98978.03;;;15.60;77.43
24422;BME280;12600;53.326;-6.298;2024-02-21T13:23:22;98978.47;;;15.62;77.79
24422;BME280;12600;53.326;-6.298;2024-02-21T13:26:11;98979.06;;;15.93;77.00
24422;BME280;12600;53.326;-6.298;2024-02-21T13:29:02;98966.75;;;15.73;75.82
24422;BME280;12600;53.326;-6.298;2024-02-21T13:31:53;98982.09;;;15.74;75.50
24422;BME280;12600;53.326;-6.298;2024-02-21T13:34:43;98968.28;;;15.66;74.09
24422;BME280;12600;53.326;-6.298;2024-02-21T13:37:32;98978.50;;;15.66;74.07
24422;BME280;12600;53.326;-6.298;2024-02-21T13:40:22;98994.69;;;15.78;73.87
24422;BME280;12600;53.326;-6.298;2024-02-21T13:43:13;98996.31;;;15.86;73.49
24422;BME280;12600;53.326;-6.298;2024-02-21T13:46:03;98968.00;;;15.86;72.75
24422;BME280;12600;53.326;-6.298;2024-02-21T13:49:04;98992.66;;;15.64;72.74
24422;BME280;12600;53.326;-6.298;2024-02-21T13:51:55;98994.72;;;15.82;73.43
24422;BME280;12600;53.326;-6.298;2024-02-21T13:54:45;98988.84;;;15.87;74.95
24422;BME280;12600;53.326;-6.298;2024-02-21T13:57:35;98988.44;;;15.85;76.65
24422;BME280;12600;53.326;-6.298;2024-02-21T14:00:24;98996.16;;;15.61;78.86
24422;BME280;12600;53.326;-6.298;2024-02-21T14:03:15;98988.19;;;15.49;78.87
24422;BME280;12600;53.326;-6.298;2024-02-21T14:06:06;98989.41;;;15.55;78.17
24422;BME280;12600;53.326;-6.298;2024-02-21T14:08:55;99002.03;;;15.56;77.25
24422;BME280;12600;53.326;-6.298;2024-02-21T14:11:45;99005.50;;;15.50;76.30
24422;BME280;12600;53.326;-6.298;2024-02-21T14:14:35;99005.78;;;15.34;73.42
24422;BME280;12600;53.326;-6.298;2024-02-21T14:17:27;99020.59;;;15.19;72.13
24422;BME280;12600;53.326;-6.298;2024-02-21T14:20:17;99004.13;;;15.26;70.58
24422;BME280;12600;53.326;-6.298;2024-02-21T14:23:08;99017.84;;;15.22;71.40
24422;BME280;12600;53.326;-6.298;2024-02-21T14:25:57;99020.72;;;15.36;70.94
24422;BME280;12600;53.326;-6.298;2024-02-21T14:28:47;99015.41;;;15.58;71.30
24422;BME280;12600;53.326;-6.298;2024-02-21T14:31:36;99000.72;;;15.43;71.12
24422;BME280;12600;53.326;-6.298;2024-02-21T14:34:26;99031.00;;;15.43;71.61
24422;BME280;12600;53.326;-6.298;2024-02-21T14:37:16;99028.25;;;15.43;71.32
24422;BME280;12600;53.326;-6.298;2024-02-21T14:40:08;99019.16;;;15.39;70.85
24422;BME280;12600;53.326;-6.298;2024-02-21T14:42:58;99012.78;;;15.28;70.47
24422;BME280;12600;53.326;-6.298;2024-02-21T14:45:49;99009.72;;;15.33;69.96